Terminal Aerodrome Forecast
Issued by NWS

Home | Current Version | Previous Version | Graphics & Text | Print | Product List | Glossary On
Versions: 1 2 3 4 5 6 7 8 9 10 11 12 13 14 15 16 17 18 19 20 21 22 23 24 25 26 27 28 29 30 31 32 33 34 35 36
000
FTUS43 KLOT 142300
TAFMDW
TAF
KMDW 142339Z 1500/1524 19007KT 3SM BR OVC006
     FM150200 19007KT 2SM BR OVC004
     FM150700 19007KT 1SM -DZ BR OVC002
     FM151400 17011KT 5SM BR OVC007
     FM151700 15012KT P6SM OVC012
      TEMPO 1518/1522 -SHRA
     FM152200 14010KT 3SM -DZRA BR OVC007=

USA.gov is the U.S. government's official web portal to all federal, state and local government web resources and services.